createdAt,value
2018-01-26T00:00:20.945Z,99.99
2018-01-26T00:01:20.885Z,99.99
2018-01-26T00:02:20.827Z,99.99
2018-01-26T00:03:20.766Z,99.99
2018-01-26T00:04:20.706Z,99.99
2018-01-26T00:05:20.646Z,99.99
2018-01-26T00:06:20.585Z,99.99
2018-01-26T00:07:20.528Z,99.99
2018-01-26T00:08:20.519Z,99.99
2018-01-26T00:09:20.408Z,99.99
2018-01-26T00:10:20.348Z,99.99
2018-01-26T00:11:20.286Z,99.99
2018-01-26T00:12:20.230Z,99.99
2018-01-26T00:13:20.168Z,99.99
2018-01-26T00:14:20.108Z,99.82
2018-01-26T00:15:20.047Z,99.99
2018-01-26T00:16:19.988Z,99.99
2018-01-26T00:17:19.928Z,99.99
2018-01-26T00:18:19.867Z,99.99
2018-01-26T00:19:19.810Z,99.99
2018-01-26T00:20:19.748Z,99.99
2018-01-26T00:21:19.688Z,99.99
2018-01-26T00:22:19.629Z,99.99
2018-01-26T00:23:19.568Z,99.99
2018-01-26T00:24:19.509Z,99.99
2018-01-26T00:25:19.451Z,99.99
2018-01-26T00:26:19.389Z,99.99
2018-01-26T00:27:19.328Z,99.99
2018-01-26T00:28:19.269Z,99.99
2018-01-26T00:29:19.207Z,99.99
2018-01-26T00:30:19.148Z,99.99
2018-01-26T00:31:19.095Z,99.99
2018-01-26T00:32:19.028Z,99.99
2018-01-26T00:33:18.968Z,99.99
2018-01-26T00:34:18.907Z,99.99
2018-01-26T00:35:18.846Z,99.99
2018-01-26T00:36:18.789Z,99.99
2018-01-26T00:37:18.728Z,99.49
2018-01-26T00:38:18.665Z,98.82
2018-01-26T00:39:18.606Z,98.73
2018-01-26T00:40:18.547Z,99.11
2018-01-26T00:41:18.485Z,99.20
2018-01-26T00:42:18.432Z,98.44
2018-01-26T00:43:18.365Z,97.97
2018-01-26T00:44:18.305Z,97.88
2018-01-26T00:45:18.248Z,97.97
2018-01-26T00:46:18.185Z,96.36
2018-01-26T00:47:18.169Z,97.21
2018-01-26T00:48:18.065Z,97.40
2018-01-26T00:49:18.006Z,97.97
2018-01-26T00:50:17.944Z,98.16
2018-01-26T00:51:17.930Z,98.73
2018-01-26T00:52:17.825Z,98.16
2018-01-26T00:53:17.766Z,97.40
2018-01-26T00:54:17.704Z,96.92
2018-01-26T00:55:17.643Z,97.59
2018-01-26T00:56:17.594Z,97.59
2018-01-26T00:57:17.523Z,97.12
2018-01-26T00:58:17.463Z,97.02
2018-01-26T00:59:17.402Z,97.59
2018-01-26T01:00:17.341Z,98.07
2018-01-26T01:01:17.282Z,98.16
2018-01-26T01:02:17.219Z,98.82
2018-01-26T01:03:17.159Z,98.44
2018-01-26T01:04:17.099Z,97.31
2018-01-26T01:05:17.040Z,97.97
2018-01-26T01:06:16.976Z,97.31
2018-01-26T01:07:16.918Z,96.45
2018-01-26T01:08:16.861Z,97.40
2018-01-26T01:09:16.798Z,96.55
2018-01-26T01:10:16.740Z,97.69
2018-01-26T01:11:16.676Z,97.69
2018-01-26T01:12:16.616Z,98.54
2018-01-26T01:13:16.557Z,97.31
2018-01-26T01:14:16.497Z,97.78
2018-01-26T01:15:16.436Z,97.31
2018-01-26T01:16:16.376Z,97.02
2018-01-26T01:17:16.313Z,96.36
2018-01-26T01:18:16.262Z,96.17
2018-01-26T01:19:16.197Z,94.27
2018-01-26T01:20:16.136Z,95.03
2018-01-26T01:21:16.075Z,95.03
2018-01-26T01:22:16.021Z,95.12
2018-01-26T01:23:15.954Z,95.22
2018-01-26T01:24:15.894Z,93.99
2018-01-26T01:25:15.833Z,94.18
2018-01-26T01:26:15.773Z,94.08
2018-01-26T01:27:15.712Z,94.18
2018-01-26T01:28:15.652Z,93.41
2018-01-26T01:29:15.594Z,94.18
2018-01-26T01:30:15.529Z,93.41
2018-01-26T01:31:15.471Z,93.13
2018-01-26T01:32:15.411Z,92.85
2018-01-26T01:33:15.352Z,92.66
2018-01-26T01:34:15.288Z,91.24
2018-01-26T01:35:15.233Z,92.94
2018-01-26T01:36:15.169Z,91.61
2018-01-26T01:37:15.111Z,90.29
2018-01-26T01:38:15.049Z,90.86
2018-01-26T01:39:14.988Z,91.90
2018-01-26T01:40:14.928Z,90.29
2018-01-26T01:41:14.867Z,90.19
2018-01-26T01:42:14.807Z,89.81
2018-01-26T01:43:14.748Z,88.20
2018-01-26T01:44:14.687Z,87.35
2018-01-26T01:45:14.636Z,87.40
2018-01-26T01:46:14.565Z,86.55
2018-01-26T01:47:14.504Z,86.74
2018-01-26T01:48:14.453Z,86.07
2018-01-26T01:49:14.390Z,85.31
2018-01-26T01:50:14.324Z,87.30
2018-01-26T01:51:14.263Z,86.68
2018-01-26T01:52:14.206Z,86.49
2018-01-26T01:53:14.143Z,91.00
2018-01-26T01:54:14.080Z,89.67
2018-01-26T01:55:14.021Z,87.49
2018-01-26T01:56:13.962Z,84.65
2018-01-26T01:57:13.905Z,83.61
2018-01-26T01:58:13.853Z,81.90
2018-01-26T01:59:13.779Z,82.66
2018-01-26T02:00:13.718Z,83.13
2018-01-26T02:01:13.667Z,84.27
2018-01-26T02:02:13.598Z,85.03
2018-01-26T02:03:13.531Z,87.49
2018-01-26T02:04:13.482Z,85.69
2018-01-26T02:05:13.417Z,84.36
2018-01-26T02:06:13.355Z,84.08
2018-01-26T02:07:13.296Z,86.64
2018-01-26T02:08:13.233Z,87.12
2018-01-26T02:09:13.176Z,85.03
2018-01-26T02:10:13.115Z,84.46
2018-01-26T02:11:13.049Z,87.30
2018-01-26T02:12:12.990Z,86.35
2018-01-26T02:13:12.933Z,83.98
2018-01-26T02:14:12.870Z,82.75
2018-01-26T02:15:12.809Z,80.95
2018-01-26T02:16:12.749Z,85.97
2018-01-26T02:17:12.684Z,85.08
2018-01-26T02:18:12.625Z,81.14
2018-01-26T02:19:12.566Z,80.00
2018-01-26T02:20:12.503Z,82.75
2018-01-26T02:21:12.441Z,83.32
2018-01-26T02:22:12.378Z,85.13
2018-01-26T02:23:12.319Z,87.12
2018-01-26T02:24:12.261Z,87.77
2018-01-26T02:25:12.201Z,87.49
2018-01-26T02:26:12.143Z,90.72
2018-01-26T02:27:12.075Z,90.62
2018-01-26T02:28:12.013Z,89.96
2018-01-26T02:29:11.953Z,88.92
2018-01-26T02:30:11.892Z,87.30
2018-01-26T02:31:11.832Z,87.68
2018-01-26T02:32:11.771Z,87.87
2018-01-26T02:33:11.709Z,88.44
2018-01-26T02:34:11.646Z,89.01
2018-01-26T02:35:11.587Z,87.49
2018-01-26T02:36:11.534Z,86.69
2018-01-26T02:37:11.471Z,85.60
2018-01-26T02:38:11.404Z,86.74
2018-01-26T02:39:11.342Z,87.87
2018-01-26T02:40:11.290Z,89.29
2018-01-26T02:41:11.219Z,90.91
2018-01-26T02:42:11.160Z,91.00
2018-01-26T02:43:11.102Z,91.38
2018-01-26T02:44:11.035Z,90.53
2018-01-26T02:45:10.969Z,89.48
2018-01-26T02:46:10.915Z,89.58
2018-01-26T02:47:10.853Z,87.49
2018-01-26T02:48:10.793Z,86.74
2018-01-26T02:49:10.733Z,85.50
2018-01-26T02:50:10.670Z,85.03
2018-01-26T02:51:10.609Z,84.32
2018-01-26T02:52:10.546Z,84.08
2018-01-26T02:53:10.487Z,83.61
2018-01-26T02:54:10.430Z,83.80
2018-01-26T02:55:10.365Z,84.61
2018-01-26T02:56:10.303Z,83.66
2018-01-26T02:57:10.244Z,83.75
2018-01-26T02:58:10.180Z,83.37
2018-01-26T02:59:10.122Z,83.66
2018-01-26T03:00:10.060Z,82.81
2018-01-26T03:01:10.050Z,82.52
2018-01-26T03:02:09.936Z,83.66
2018-01-26T03:03:09.876Z,81.20
2018-01-26T03:04:09.814Z,81.10
2018-01-26T03:05:09.756Z,82.05
2018-01-26T03:06:09.692Z,80.06
2018-01-26T03:07:09.632Z,77.12
2018-01-26T03:08:09.575Z,75.79
2018-01-26T03:09:09.510Z,75.51
2018-01-26T03:10:09.447Z,75.89
2018-01-26T03:11:09.387Z,75.60
2018-01-26T03:12:09.328Z,76.93
2018-01-26T03:13:09.265Z,83.00
2018-01-26T03:14:09.205Z,80.06
2018-01-26T03:15:09.144Z,78.92
2018-01-26T03:16:09.082Z,76.55
2018-01-26T03:17:09.023Z,75.51
2018-01-26T03:18:08.961Z,74.56
2018-01-26T03:19:08.903Z,76.27
2018-01-26T03:20:08.838Z,78.07
2018-01-26T03:21:08.776Z,76.55
2018-01-26T03:22:08.716Z,76.55
2018-01-26T03:23:08.657Z,74.56
2018-01-26T03:24:08.592Z,71.62
2018-01-26T03:25:08.530Z,72.29
2018-01-26T03:26:08.469Z,70.49
2018-01-26T03:27:08.410Z,72.29
2018-01-26T03:28:08.347Z,72.77
2018-01-26T03:29:08.287Z,73.43
2018-01-26T03:30:08.226Z,73.61
2018-01-26T03:31:08.163Z,80.72
2018-01-26T03:32:08.102Z,78.92
2018-01-26T03:33:08.040Z,75.13
2018-01-26T03:34:07.979Z,72.86
2018-01-26T03:35:07.920Z,70.11
2018-01-26T03:36:07.858Z,71.06
2018-01-26T03:37:07.797Z,72.00
2018-01-26T03:38:07.733Z,71.15
2018-01-26T03:39:07.671Z,69.35
2018-01-26T03:40:07.616Z,69.07
2018-01-26T03:41:07.551Z,70.11
2018-01-26T03:42:07.489Z,75.70
2018-01-26T03:43:07.427Z,73.99
2018-01-26T03:44:07.365Z,72.48
2018-01-26T03:45:07.304Z,74.66
2018-01-26T03:46:07.242Z,73.99
2018-01-26T03:47:07.180Z,72.77
2018-01-26T03:48:07.128Z,72.19
2018-01-26T03:49:07.062Z,76.08
2018-01-26T03:50:06.997Z,75.60
2018-01-26T03:51:06.937Z,71.34
2018-01-26T03:52:06.876Z,71.34
2018-01-26T03:53:06.814Z,71.81
2018-01-26T03:54:06.753Z,70.30
2018-01-26T03:55:06.690Z,69.35
2018-01-26T03:56:06.631Z,69.35
2018-01-26T03:57:06.568Z,70.30
2018-01-26T03:58:06.505Z,71.72
2018-01-26T03:59:06.444Z,72.00
2018-01-26T04:00:06.383Z,72.10
2018-01-26T04:01:06.323Z,71.15
2018-01-26T04:02:06.262Z,71.25
2018-01-26T04:03:06.201Z,72.57
2018-01-26T04:04:06.138Z,68.88
2018-01-26T04:05:06.078Z,69.82
2018-01-26T04:06:06.016Z,70.49
2018-01-26T04:07:05.953Z,75.04
2018-01-26T04:08:05.894Z,74.56
2018-01-26T04:09:05.831Z,72.67
2018-01-26T04:10:05.771Z,69.07
2018-01-26T04:11:05.709Z,71.72
2018-01-26T04:12:05.652Z,70.30
2018-01-26T04:13:05.592Z,68.21
2018-01-26T04:14:05.526Z,66.51
2018-01-26T04:15:05.466Z,67.65
2018-01-26T04:16:05.403Z,69.17
2018-01-26T04:17:05.342Z,69.26
2018-01-26T04:18:05.281Z,69.01
2018-01-26T04:19:05.218Z,71.85
2018-01-26T04:20:05.157Z,72.33
2018-01-26T04:21:05.095Z,72.42
2018-01-26T04:22:05.037Z,72.61
2018-01-26T04:23:04.976Z,74.22
2018-01-26T04:24:04.913Z,75.17
2018-01-26T04:25:04.854Z,74.60
2018-01-26T04:26:04.789Z,74.79
2018-01-26T04:27:04.729Z,75.17
2018-01-26T04:28:04.668Z,75.64
2018-01-26T04:29:04.606Z,76.50
2018-01-26T04:30:04.544Z,75.26
2018-01-26T04:31:04.481Z,74.28
2018-01-26T04:32:04.420Z,75.13
2018-01-26T04:33:04.361Z,72.33
2018-01-26T04:34:04.298Z,72.61
2018-01-26T04:35:04.237Z,75.26
2018-01-26T04:36:04.178Z,76.31
2018-01-26T04:37:04.117Z,76.59
2018-01-26T04:38:04.054Z,76.78
2018-01-26T04:39:03.992Z,77.06
2018-01-26T04:40:03.931Z,76.40
2018-01-26T04:41:03.869Z,77.45
2018-01-26T04:42:03.808Z,75.55
2018-01-26T04:43:03.746Z,76.59
2018-01-26T04:44:03.687Z,76.78
2018-01-26T04:45:03.624Z,76.87
2018-01-26T04:46:03.562Z,74.60
2018-01-26T04:47:03.503Z,73.84
2018-01-26T04:48:03.439Z,75.36
2018-01-26T04:49:03.380Z,75.26
2018-01-26T04:50:03.320Z,74.41
2018-01-26T04:51:03.256Z,74.41
2018-01-26T04:52:03.197Z,74.22
2018-01-26T04:53:03.136Z,72.61
2018-01-26T04:54:03.071Z,73.56
2018-01-26T04:55:03.018Z,74.51
2018-01-26T04:56:02.952Z,73.08
2018-01-26T04:57:02.891Z,72.61
2018-01-26T04:58:02.830Z,72.71
2018-01-26T04:59:02.766Z,73.08
2018-01-26T05:00:02.706Z,71.66
2018-01-26T05:01:02.645Z,71.66
2018-01-26T05:02:02.584Z,72.14
2018-01-26T05:03:02.522Z,71.66
2018-01-26T05:04:02.460Z,71.85
2018-01-26T05:05:02.403Z,71.57
2018-01-26T05:06:02.338Z,72.04
2018-01-26T05:07:02.278Z,72.04
2018-01-26T05:08:02.218Z,70.43
2018-01-26T05:09:02.157Z,69.38
2018-01-26T05:10:02.097Z,69.57
2018-01-26T05:11:02.036Z,71.09
2018-01-26T05:12:01.974Z,71.38
2018-01-26T05:13:01.914Z,70.43
2018-01-26T05:14:01.852Z,70.72
2018-01-26T05:15:01.789Z,70.15
2018-01-26T05:16:01.727Z,70.15
2018-01-26T05:17:01.667Z,71.57
2018-01-26T05:18:01.608Z,72.52
2018-01-26T05:19:01.547Z,72.99
2018-01-26T05:20:01.485Z,73.27
2018-01-26T05:21:01.424Z,71.28
2018-01-26T05:22:01.361Z,69.96
2018-01-26T05:23:01.300Z,70.15
2018-01-26T05:24:01.239Z,73.46
2018-01-26T05:25:01.179Z,72.86
2018-01-26T05:26:01.117Z,71.47
2018-01-26T05:27:01.057Z,72.38
2018-01-26T05:28:00.994Z,72.57
2018-01-26T05:29:00.956Z,70.30
2018-01-26T05:30:00.870Z,70.39
2018-01-26T05:31:00.809Z,70.39
2018-01-26T05:32:00.749Z,69.54
2018-01-26T05:33:00.688Z,68.40
2018-01-26T05:34:00.627Z,65.94
2018-01-26T05:35:00.565Z,68.35
2018-01-26T05:36:00.505Z,67.87
2018-01-26T05:37:00.442Z,69.01
2018-01-26T05:38:00.380Z,70.34
2018-01-26T05:39:00.321Z,72.04
2018-01-26T05:40:00.259Z,71.47
2018-01-26T05:41:00.196Z,70.81
2018-01-26T05:42:00.135Z,71.85
2018-01-26T05:43:00.074Z,73.65
2018-01-26T05:44:00.062Z,72.61
2018-01-26T05:44:59.952Z,72.42
2018-01-26T05:45:59.890Z,70.72
2018-01-26T05:46:59.829Z,70.24
2018-01-26T05:47:59.768Z,71.91
2018-01-26T05:48:59.706Z,71.28
2018-01-26T05:49:59.645Z,72.14
2018-01-26T05:50:59.584Z,70.90
2018-01-26T05:51:59.524Z,70.24
2018-01-26T05:52:59.463Z,70.24
2018-01-26T05:53:59.400Z,69.96
2018-01-26T05:54:59.341Z,70.15
2018-01-26T05:55:59.302Z,68.91
2018-01-26T05:56:59.219Z,68.12
2018-01-26T05:57:59.156Z,68.25
2018-01-26T05:58:59.098Z,68.15
2018-01-26T05:59:59.035Z,68.88
2018-01-26T06:00:58.971Z,66.83
2018-01-26T06:01:58.911Z,66.41
2018-01-26T06:02:58.852Z,65.00
2018-01-26T06:03:58.787Z,62.34
2018-01-26T06:04:58.729Z,65.84
2018-01-26T06:05:58.668Z,68.59
2018-01-26T06:06:58.605Z,67.74
2018-01-26T06:07:58.546Z,68.59
2018-01-26T06:08:58.483Z,69.17
2018-01-26T06:09:58.421Z,68.12
2018-01-26T06:10:58.359Z,66.13
2018-01-26T06:11:58.299Z,65.28
2018-01-26T06:12:58.238Z,66.99
2018-01-26T06:13:58.175Z,68.59
2018-01-26T06:14:58.115Z,67.83
2018-01-26T06:15:58.054Z,66.80
2018-01-26T06:16:57.992Z,65.19
2018-01-26T06:17:57.933Z,63.20
2018-01-26T06:18:57.870Z,59.97
2018-01-26T06:19:57.809Z,57.04
2018-01-26T06:20:57.747Z,55.43
2018-01-26T06:21:57.687Z,56.27
2018-01-26T06:22:57.624Z,57.42
2018-01-26T06:23:57.563Z,57.42
2018-01-26T06:24:57.502Z,58.01
2018-01-26T06:25:57.440Z,60.47
2018-01-26T06:26:57.379Z,60.19
2018-01-26T06:27:57.318Z,59.44
2018-01-26T06:28:57.256Z,59.44
2018-01-26T06:29:57.194Z,59.15
2018-01-26T06:30:57.133Z,60.76
2018-01-26T06:31:57.073Z,62.47
2018-01-26T06:32:57.012Z,61.52
2018-01-26T06:33:56.949Z,60.19
2018-01-26T06:34:56.888Z,59.91
2018-01-26T06:35:56.825Z,61.71
2018-01-26T06:36:56.766Z,62.47
2018-01-26T06:37:56.704Z,61.80
2018-01-26T06:38:56.640Z,60.76
2018-01-26T06:39:56.581Z,62.53
2018-01-26T06:40:56.518Z,61.99
2018-01-26T06:41:56.456Z,60.67
2018-01-26T06:42:56.398Z,59.34
2018-01-26T06:43:56.334Z,60.10
2018-01-26T06:44:56.273Z,60.64
2018-01-26T06:45:56.211Z,59.81
2018-01-26T06:46:56.149Z,57.04
2018-01-26T06:47:56.089Z,59.91
2018-01-26T06:48:56.018Z,61.11
2018-01-26T06:49:55.966Z,59.59
2018-01-26T06:50:55.904Z,59.53
2018-01-26T06:51:55.841Z,60.57
2018-01-26T06:52:55.781Z,60.76
2018-01-26T06:53:55.719Z,59.81
2018-01-26T06:54:55.658Z,59.63
2018-01-26T06:55:55.598Z,59.12
2018-01-26T06:56:55.537Z,57.60
2018-01-26T06:57:55.475Z,58.48
2018-01-26T06:58:55.413Z,59.53
2018-01-26T06:59:55.351Z,60.86
2018-01-26T07:00:55.290Z,57.82
2018-01-26T07:01:55.245Z,59.05
2018-01-26T07:02:55.166Z,60.76
2018-01-26T07:03:55.105Z,61.24
2018-01-26T07:04:55.045Z,60.67
2018-01-26T07:05:54.984Z,62.08
2018-01-26T07:06:54.921Z,59.91
2018-01-26T07:07:54.861Z,59.81
2018-01-26T07:08:54.798Z,59.34
2018-01-26T07:09:54.737Z,58.20
2018-01-26T07:10:54.676Z,61.24
2018-01-26T07:11:54.615Z,61.24
2018-01-26T07:12:54.554Z,60.95
2018-01-26T07:13:54.490Z,61.33
2018-01-26T07:14:54.429Z,60.76
2018-01-26T07:15:54.373Z,61.52
2018-01-26T07:16:54.310Z,61.24
2018-01-26T07:17:54.252Z,61.43
2018-01-26T07:18:54.185Z,62.08
2018-01-26T07:19:54.124Z,61.90
2018-01-26T07:20:54.065Z,64.08
2018-01-26T07:21:54.002Z,64.84
2018-01-26T07:22:53.939Z,65.12
2018-01-26T07:23:53.882Z,63.98
2018-01-26T07:24:53.826Z,63.04
2018-01-26T07:25:53.760Z,61.99
2018-01-26T07:26:53.695Z,62.08
2018-01-26T07:27:53.632Z,61.80
2018-01-26T07:28:53.573Z,60.67
2018-01-26T07:29:53.510Z,60.76
2018-01-26T07:30:53.451Z,60.00
2018-01-26T07:31:53.387Z,59.25
2018-01-26T07:32:53.328Z,60.28
2018-01-26T07:33:53.267Z,59.34
2018-01-26T07:34:53.203Z,59.25
2018-01-26T07:35:53.144Z,59.05
2018-01-26T07:36:53.084Z,58.96
2018-01-26T07:37:53.024Z,58.77
2018-01-26T07:38:52.959Z,59.05
2018-01-26T07:39:52.897Z,58.58
2018-01-26T07:40:52.841Z,58.48
2018-01-26T07:41:52.775Z,58.58
2018-01-26T07:42:52.713Z,58.20
2018-01-26T07:43:52.656Z,58.20
2018-01-26T07:44:52.593Z,57.35
2018-01-26T07:45:52.534Z,58.20
2018-01-26T07:46:52.471Z,60.57
2018-01-26T07:47:52.410Z,62.18
2018-01-26T07:48:52.348Z,61.05
2018-01-26T07:49:52.288Z,60.67
2018-01-26T07:50:52.226Z,59.34
2018-01-26T07:51:52.165Z,60.67
2018-01-26T07:52:52.104Z,60.19
2018-01-26T07:53:52.044Z,59.72
2018-01-26T07:54:51.986Z,63.07
2018-01-26T07:55:51.922Z,62.40
2018-01-26T07:56:51.864Z,62.69
2018-01-26T07:57:51.800Z,64.11
2018-01-26T07:58:51.741Z,65.06
2018-01-26T07:59:51.679Z,67.14
2018-01-26T08:00:51.622Z,66.58
2018-01-26T08:01:51.557Z,66.29
2018-01-26T08:02:51.502Z,65.34
2018-01-26T08:03:51.439Z,66.20
2018-01-26T08:04:51.383Z,64.97
2018-01-26T08:05:51.317Z,63.45
2018-01-26T08:06:51.277Z,61.74
2018-01-26T08:07:51.193Z,62.31
2018-01-26T08:08:51.134Z,62.88
2018-01-26T08:09:51.071Z,63.73
2018-01-26T08:10:51.011Z,63.64
2018-01-26T08:11:50.942Z,64.01
2018-01-26T08:12:50.889Z,64.11
2018-01-26T08:13:50.830Z,64.30
2018-01-26T08:14:50.768Z,65.06
2018-01-26T08:15:50.706Z,64.68
2018-01-26T08:16:50.645Z,65.25
2018-01-26T08:17:50.585Z,63.64
2018-01-26T08:18:50.526Z,63.07
2018-01-26T08:19:50.466Z,63.35
2018-01-26T08:20:50.407Z,63.64
2018-01-26T08:21:50.345Z,64.20
2018-01-26T08:22:50.284Z,63.26
2018-01-26T08:23:50.222Z,63.07
2018-01-26T08:24:50.180Z,63.45
2018-01-26T08:25:50.108Z,64.87
2018-01-26T08:26:50.041Z,65.44
2018-01-26T08:27:49.981Z,67.52
2018-01-26T08:28:49.919Z,66.10
2018-01-26T08:29:49.862Z,66.48
2018-01-26T08:30:49.800Z,66.39
2018-01-26T08:31:49.742Z,69.08
2018-01-26T08:32:49.679Z,68.89
2018-01-26T08:33:49.621Z,68.79
2018-01-26T08:34:49.557Z,69.84
2018-01-26T08:35:49.503Z,69.65
2018-01-26T08:36:49.440Z,69.65
2018-01-26T08:37:49.376Z,69.08
2018-01-26T08:38:49.316Z,68.89
2018-01-26T08:39:49.257Z,69.65
2018-01-26T08:40:49.197Z,71.73
2018-01-26T08:41:49.137Z,69.08
2018-01-26T08:42:49.077Z,70.98
2018-01-26T08:43:49.016Z,71.73
2018-01-26T08:44:48.956Z,70.98
2018-01-26T08:45:48.896Z,72.02
2018-01-26T08:46:48.835Z,72.97
2018-01-26T08:47:48.776Z,73.07
2018-01-26T08:48:48.717Z,73.67
2018-01-26T08:49:48.653Z,77.75
2018-01-26T08:50:48.595Z,76.90
2018-01-26T08:51:48.539Z,77.37
2018-01-26T08:52:48.480Z,77.28
2018-01-26T08:53:48.416Z,77.47
2018-01-26T08:54:48.356Z,81.45
2018-01-26T08:55:48.296Z,79.55
2018-01-26T08:56:48.236Z,79.08
2018-01-26T08:57:48.177Z,79.74
2018-01-26T08:58:48.116Z,79.27
2018-01-26T08:59:48.057Z,81.07
2018-01-26T09:00:47.997Z,78.23
2018-01-26T09:01:47.936Z,82.78
2018-01-26T09:02:47.883Z,80.69
2018-01-26T09:03:47.819Z,80.51
2018-01-26T09:04:47.776Z,80.79
2018-01-26T09:05:47.700Z,81.45
2018-01-26T09:06:47.641Z,81.84
2018-01-26T09:07:47.578Z,82.12
2018-01-26T09:08:47.518Z,82.59
2018-01-26T09:09:47.460Z,82.97
2018-01-26T09:10:47.400Z,83.01
2018-01-26T09:11:47.338Z,85.63
2018-01-26T09:12:47.280Z,82.26
2018-01-26T09:13:47.219Z,84.16
2018-01-26T09:14:47.160Z,83.87
2018-01-26T09:15:47.101Z,85.11
2018-01-26T09:16:47.048Z,85.68
2018-01-26T09:17:46.983Z,87.95
2018-01-26T09:18:46.924Z,84.91
2018-01-26T09:19:46.865Z,86.82
2018-01-26T09:20:46.805Z,86.15
2018-01-26T09:21:46.747Z,84.72
2018-01-26T09:22:46.685Z,87.86
2018-01-26T09:23:46.625Z,87.19
2018-01-26T09:24:46.569Z,88.34
2018-01-26T09:25:46.508Z,87.67
2018-01-26T09:26:46.451Z,88.38
2018-01-26T09:27:46.388Z,89.80
2018-01-26T09:28:46.330Z,88.95
2018-01-26T09:29:46.271Z,90.47
2018-01-26T09:30:46.214Z,90.09
2018-01-26T09:31:46.152Z,89.71
2018-01-26T09:32:46.091Z,88.38
2018-01-26T09:33:46.035Z,88.57
2018-01-26T09:34:45.976Z,88.19
2018-01-26T09:35:45.916Z,89.23
2018-01-26T09:36:45.856Z,86.57
2018-01-26T09:37:45.798Z,88.57
2018-01-26T09:38:45.739Z,89.23
2018-01-26T09:39:45.680Z,87.05
2018-01-26T09:40:45.622Z,87.71
2018-01-26T09:41:45.560Z,86.95
2018-01-26T09:42:45.503Z,89.14
2018-01-26T09:43:45.445Z,88.95
2018-01-26T09:44:45.386Z,87.43
2018-01-26T09:45:45.325Z,86.10
2018-01-26T09:46:45.269Z,86.29
2018-01-26T09:47:45.207Z,88.00
2018-01-26T09:48:45.206Z,90.09
2018-01-26T09:49:45.089Z,89.04
2018-01-26T09:50:45.033Z,88.38
2018-01-26T09:51:44.975Z,88.00
2018-01-26T09:52:44.912Z,91.80
2018-01-26T09:53:44.853Z,91.89
2018-01-26T09:54:44.796Z,89.42
2018-01-26T09:55:44.737Z,92.75
2018-01-26T09:56:44.679Z,89.33
2018-01-26T09:57:44.622Z,89.90
2018-01-26T09:58:44.563Z,86.29
2018-01-26T09:59:44.529Z,87.52
2018-01-26T10:00:44.453Z,90.09
2018-01-26T10:01:44.388Z,90.37
2018-01-26T10:02:44.326Z,88.76
2018-01-26T10:03:44.266Z,89.14
2018-01-26T10:04:44.209Z,86.00
2018-01-26T10:05:44.149Z,87.71
2018-01-26T10:06:44.090Z,88.19
2018-01-26T10:07:44.033Z,86.47
2018-01-26T10:08:43.977Z,88.19
2018-01-26T10:09:43.915Z,87.34
2018-01-26T10:10:43.858Z,88.38
2018-01-26T10:11:43.798Z,89.33
2018-01-26T10:12:43.739Z,88.95
2018-01-26T10:13:43.681Z,89.14
2018-01-26T10:14:43.620Z,87.90
2018-01-26T10:15:43.565Z,89.23
2018-01-26T10:16:43.503Z,89.33
2018-01-26T10:17:43.445Z,90.66
2018-01-26T10:18:43.386Z,88.95
2018-01-26T10:19:43.328Z,89.23
2018-01-26T10:20:43.269Z,88.47
2018-01-26T10:21:43.209Z,90.66
2018-01-26T10:22:43.153Z,90.47
2018-01-26T10:23:43.094Z,90.66
2018-01-26T10:24:43.035Z,89.80
2018-01-26T10:25:42.975Z,88.47
2018-01-26T10:26:42.918Z,88.38
2018-01-26T10:27:42.857Z,89.71
2018-01-26T10:28:42.800Z,88.00
2018-01-26T10:29:42.784Z,88.47
2018-01-26T10:30:42.680Z,88.57
2018-01-26T10:31:42.622Z,90.94
2018-01-26T10:32:42.564Z,90.28
2018-01-26T10:33:42.507Z,91.80
2018-01-26T10:34:42.447Z,89.90
2018-01-26T10:35:42.387Z,86.95
2018-01-26T10:36:42.329Z,89.14
2018-01-26T10:37:42.268Z,88.57
2018-01-26T10:38:42.208Z,89.04
2018-01-26T10:39:42.152Z,88.85
2018-01-26T10:40:42.092Z,88.09
2018-01-26T10:41:42.034Z,88.19
2018-01-26T10:42:41.974Z,87.90
2018-01-26T10:43:41.914Z,88.19
2018-01-26T10:44:41.856Z,88.00
2018-01-26T10:45:41.796Z,86.95
2018-01-26T10:46:41.737Z,88.00
2018-01-26T10:47:41.679Z,87.81
2018-01-26T10:48:41.619Z,88.28
2018-01-26T10:49:41.558Z,90.37
2018-01-26T10:50:41.501Z,89.71
2018-01-26T10:51:41.441Z,89.28
2018-01-26T10:52:41.380Z,91.99
2018-01-26T10:53:41.322Z,89.94
2018-01-26T10:54:41.264Z,92.80
2018-01-26T10:55:41.205Z,92.70
2018-01-26T10:56:41.148Z,95.17
2018-01-26T10:57:41.086Z,92.32
2018-01-26T10:58:41.028Z,93.27
2018-01-26T10:59:40.969Z,98.65
2018-01-26T11:00:40.911Z,95.08
2018-01-26T11:01:40.852Z,95.17
2018-01-26T11:02:40.795Z,95.22
2018-01-26T11:03:40.734Z,95.03
2018-01-26T11:04:40.678Z,96.94
2018-01-26T11:05:40.615Z,96.46
2018-01-26T11:06:40.564Z,94.84
2018-01-26T11:07:40.500Z,93.41
2018-01-26T11:08:40.440Z,98.55
2018-01-26T11:09:40.381Z,98.13
2018-01-26T11:10:40.322Z,99.02
2018-01-26T11:11:40.266Z,96.94
2018-01-26T11:12:40.208Z,94.93
2018-01-26T11:13:40.150Z,95.32
2018-01-26T11:14:40.089Z,95.22
2018-01-26T11:15:40.032Z,94.93
2018-01-26T11:16:39.972Z,95.32
2018-01-26T11:17:39.916Z,97.41
2018-01-26T11:18:39.856Z,97.31
2018-01-26T11:19:39.803Z,96.55
2018-01-26T11:20:39.740Z,96.26
2018-01-26T11:21:39.680Z,96.74
2018-01-26T11:22:39.623Z,97.60
2018-01-26T11:23:39.564Z,99.22
2018-01-26T11:24:39.505Z,96.46
2018-01-26T11:25:39.445Z,98.65
2018-01-26T11:26:39.388Z,98.83
2018-01-26T11:27:39.330Z,98.22
2018-01-26T11:28:39.274Z,98.83
2018-01-26T11:29:39.212Z,97.69
2018-01-26T11:30:39.155Z,97.69
2018-01-26T11:31:39.098Z,97.88
2018-01-26T11:32:39.042Z,99.69
2018-01-26T11:33:38.988Z,97.22
2018-01-26T11:34:38.923Z,97.69
2018-01-26T11:35:38.864Z,96.36
2018-01-26T11:36:38.806Z,98.46
2018-01-26T11:37:38.748Z,96.94
2018-01-26T11:38:38.693Z,98.93
2018-01-26T11:39:38.634Z,96.84
2018-01-26T11:40:38.575Z,97.98
2018-01-26T11:41:38.516Z,96.36
2018-01-26T11:42:38.460Z,98.74
2018-01-26T11:43:38.400Z,96.65
2018-01-26T11:44:38.345Z,96.79
2018-01-26T11:45:38.284Z,98.79
2018-01-26T11:46:38.278Z,99.99
2018-01-26T11:47:38.169Z,99.74
2018-01-26T11:48:38.112Z,98.79
2018-01-26T11:49:38.053Z,98.41
2018-01-26T11:50:37.995Z,96.51
2018-01-26T11:51:37.938Z,99.74
2018-01-26T11:52:37.892Z,98.74
2018-01-26T11:53:37.823Z,97.31
2018-01-26T11:54:37.764Z,97.41
2018-01-26T11:55:37.706Z,95.41
2018-01-26T11:56:37.651Z,98.55
2018-01-26T11:57:37.592Z,99.12
2018-01-26T11:58:37.534Z,94.37
2018-01-26T11:59:37.470Z,98.17
2018-01-26T12:00:37.420Z,97.69
2018-01-26T12:01:37.365Z,96.22
2018-01-26T12:02:37.303Z,98.32
2018-01-26T12:03:37.248Z,98.65
2018-01-26T12:04:37.189Z,99.50
2018-01-26T12:05:37.132Z,98.36
2018-01-26T12:06:37.075Z,97.41
2018-01-26T12:07:37.015Z,97.31
2018-01-26T12:08:36.957Z,96.36
2018-01-26T12:09:36.899Z,96.26
2018-01-26T12:10:36.845Z,96.79
2018-01-26T12:11:36.784Z,99.93
2018-01-26T12:12:36.727Z,99.84
2018-01-26T12:13:36.675Z,99.36
2018-01-26T12:14:36.611Z,96.70
2018-01-26T12:15:36.556Z,99.99
2018-01-26T12:16:36.496Z,99.99
2018-01-26T12:17:36.438Z,99.74
2018-01-26T12:18:36.380Z,99.36
2018-01-26T12:19:36.327Z,98.32
2018-01-26T12:20:36.267Z,99.46
2018-01-26T12:21:36.208Z,98.55
2018-01-26T12:22:36.153Z,98.93
2018-01-26T12:23:36.094Z,98.27
2018-01-26T12:24:36.037Z,99.12
2018-01-26T12:25:35.979Z,98.03
2018-01-26T12:26:35.924Z,98.74
2018-01-26T12:27:35.863Z,98.36
2018-01-26T12:28:35.805Z,98.03
2018-01-26T12:29:35.748Z,97.74
2018-01-26T12:30:35.691Z,99.74
2018-01-26T12:31:35.634Z,99.08
2018-01-26T12:32:35.574Z,99.99
2018-01-26T12:33:35.518Z,99.08
2018-01-26T12:34:35.463Z,99.99
2018-01-26T12:35:35.403Z,99.36
2018-01-26T12:36:35.366Z,99.99
2018-01-26T12:37:35.291Z,98.98
2018-01-26T12:38:35.230Z,99.99
2018-01-26T12:39:35.174Z,98.98
2018-01-26T12:40:35.116Z,99.93
2018-01-26T12:41:35.058Z,99.99
2018-01-26T12:42:34.999Z,99.99
2018-01-26T12:43:34.943Z,99.99
2018-01-26T12:44:34.886Z,99.99
2018-01-26T12:45:34.827Z,99.99
2018-01-26T12:46:34.771Z,99.99
2018-01-26T12:47:34.712Z,99.99
2018-01-26T12:48:34.656Z,99.99
2018-01-26T12:49:34.603Z,99.99
2018-01-26T12:50:34.540Z,99.99
2018-01-26T12:51:34.486Z,99.99